createdAt,value
2019-01-23T06:34:36.141Z,3
2019-01-23T06:40:37.198Z,7
2019-01-23T06:43:37.733Z,10
2019-01-23T06:45:38.064Z,13
2019-01-23T06:47:08.373Z,17
2019-01-23T06:48:38.650Z,20
2019-01-23T06:49:38.851Z,23
2019-01-23T06:50:39.009Z,27
2019-01-23T06:51:09.073Z,30
2019-01-23T06:52:09.242Z,33
2019-01-23T06:52:39.350Z,37
2019-01-23T06:53:39.487Z,40
2019-01-23T06:54:09.546Z,43
2019-01-23T06:54:39.705Z,47
2019-01-23T06:55:09.779Z,50
2019-01-23T06:56:09.924Z,57
2019-01-23T06:56:40.079Z,60
2019-01-23T06:57:10.070Z,63
2019-01-23T06:57:40.219Z,67
2019-01-23T06:58:10.235Z,70
2019-01-23T06:58:40.372Z,77
2019-01-23T06:59:10.429Z,80
2019-01-23T06:59:40.587Z,83
2019-01-23T07:00:16.884Z,90
2019-01-23T07:00:40.722Z,97
2019-01-23T07:01:10.770Z,103
2019-01-23T07:01:40.926Z,110
2019-01-23T07:02:10.939Z,117
2019-01-23T07:02:41.153Z,127
2019-01-23T07:03:11.162Z,133
2019-01-23T07:03:41.323Z,140
2019-01-23T07:04:11.491Z,150
2019-01-23T07:04:41.473Z,157
2019-01-23T07:05:11.978Z,167
2019-01-23T07:05:41.647Z,173
2019-01-23T07:06:11.687Z,183
2019-01-23T07:06:41.822Z,193
2019-01-23T07:07:11.869Z,203
2019-01-23T07:07:42.041Z,210
2019-01-23T07:08:12.058Z,217
2019-01-23T07:08:42.208Z,227
2019-01-23T07:09:12.244Z,233
2019-01-23T07:09:42.375Z,240
2019-01-23T07:10:12.472Z,250
2019-01-23T07:10:42.564Z,257
2019-01-23T07:11:12.613Z,267
2019-01-23T07:11:42.751Z,277
2019-01-23T07:12:12.784Z,287
2019-01-23T07:12:42.913Z,297
2019-01-23T07:13:12.911Z,307
2019-01-23T07:13:43.112Z,317
2019-01-23T07:14:13.185Z,323
2019-01-23T07:14:43.309Z,333
2019-01-23T07:15:13.335Z,340
2019-01-23T07:15:43.448Z,353
2019-01-23T07:16:13.542Z,363
2019-01-23T07:16:43.640Z,377
2019-01-23T07:17:13.605Z,390
2019-01-23T07:17:43.771Z,407
2019-01-23T07:18:13.783Z,423
2019-01-23T07:18:43.929Z,437
2019-01-23T07:19:13.960Z,457
2019-01-23T07:19:44.146Z,480
2019-01-23T07:20:14.245Z,497
2019-01-23T07:20:44.341Z,517
2019-01-23T07:21:14.351Z,533
2019-01-23T07:21:44.570Z,553
2019-01-23T07:22:14.546Z,573
2019-01-23T07:22:44.732Z,590
2019-01-23T07:23:14.931Z,607
2019-01-23T07:23:44.837Z,623
2019-01-23T07:24:14.861Z,637
2019-01-23T07:24:45.063Z,650
2019-01-23T07:25:15.134Z,667
2019-01-23T07:25:45.213Z,687
2019-01-23T07:26:15.467Z,710
2019-01-23T07:26:45.393Z,733
2019-01-23T07:27:15.437Z,757
2019-01-23T07:27:45.564Z,780
2019-01-23T07:28:15.655Z,800
2019-01-23T07:28:49.223Z,817
2019-01-23T07:29:15.801Z,837
2019-01-23T07:29:45.891Z,853
2019-01-23T07:30:16.036Z,873
2019-01-23T07:30:46.126Z,897
2019-01-23T07:31:16.153Z,920
2019-01-23T07:31:46.258Z,943
2019-01-23T07:32:16.330Z,967
2019-01-23T07:32:46.471Z,987
2019-01-23T07:33:16.516Z,1003
2019-01-23T07:33:46.609Z,1020
2019-01-23T07:34:16.646Z,1040
2019-01-23T07:34:46.821Z,1060
2019-01-23T07:35:16.825Z,1083
2019-01-23T07:35:46.974Z,1107
2019-01-23T07:36:17.029Z,1130
2019-01-23T07:36:47.146Z,1153
2019-01-23T07:37:17.200Z,1177
2019-01-23T07:37:47.345Z,1200
2019-01-23T07:38:17.403Z,1223
2019-01-23T07:38:47.549Z,1247
2019-01-23T07:39:17.535Z,1263
2019-01-23T07:39:47.717Z,1277
2019-01-23T07:40:17.809Z,1283
2019-01-23T07:40:47.892Z,1293
2019-01-23T07:41:17.927Z,1313
2019-01-23T07:41:48.056Z,1340
2019-01-23T07:42:18.105Z,1380
2019-01-23T07:42:48.245Z,1420
2019-01-23T07:43:18.287Z,1460
2019-01-23T07:43:48.407Z,1487
2019-01-23T07:44:18.411Z,1510
2019-01-23T07:44:48.638Z,1540
2019-01-23T07:45:18.666Z,1573
2019-01-23T07:45:48.813Z,1607
2019-01-23T07:46:18.819Z,1643
2019-01-23T07:46:48.981Z,1687
2019-01-23T07:47:19.001Z,1737
2019-01-23T07:47:49.101Z,1790
2019-01-23T07:48:19.216Z,1833
2019-01-23T07:48:49.362Z,1867
2019-01-23T07:49:19.348Z,1900
2019-01-23T07:49:49.463Z,1937
2019-01-23T07:50:19.542Z,1977
2019-01-23T07:50:49.625Z,2010
2019-01-23T07:51:19.723Z,2033
2019-01-23T07:51:49.810Z,2053
2019-01-23T07:52:19.839Z,2073
2019-01-23T07:52:49.986Z,2093
2019-01-23T07:53:20.001Z,2120
2019-01-23T07:53:51.257Z,2153
2019-01-23T07:54:20.247Z,2200
2019-01-23T07:54:50.360Z,2260
2019-01-23T07:55:20.415Z,2333
2019-01-23T07:55:50.570Z,2420
2019-01-23T07:56:20.530Z,2510
2019-01-23T07:56:50.717Z,2590
2019-01-23T07:57:20.714Z,2660
2019-01-23T07:57:50.878Z,2720
2019-01-23T07:58:20.911Z,2773
2019-01-23T07:58:51.040Z,2813
2019-01-23T07:59:21.112Z,2850
2019-01-23T07:59:51.208Z,2880
2019-01-23T08:00:21.319Z,2907
2019-01-23T08:00:51.384Z,2920
2019-01-23T08:01:51.579Z,2923
2019-01-23T08:02:21.639Z,2940
2019-01-23T08:02:51.738Z,2980
2019-01-23T08:03:21.823Z,3030
2019-01-23T08:03:51.970Z,3093
2019-01-23T08:04:21.995Z,3160
2019-01-23T08:04:52.541Z,3240
2019-01-23T08:05:22.214Z,3330
2019-01-23T08:05:52.333Z,3407
2019-01-23T08:06:22.382Z,3470
2019-01-23T08:06:52.556Z,3517
2019-01-23T08:07:22.528Z,3550
2019-01-23T08:07:52.693Z,3587
2019-01-23T08:08:22.755Z,3620
2019-01-23T08:08:52.831Z,3630
2019-01-23T08:09:22.872Z,3627
2019-01-23T08:09:53.205Z,3630
2019-01-23T08:10:23.084Z,3647
2019-01-23T08:10:53.237Z,3690
2019-01-23T08:11:23.331Z,3740
2019-01-23T08:11:53.387Z,3783
2019-01-23T08:12:23.435Z,3817
2019-01-23T08:12:53.551Z,3840
2019-01-23T08:13:23.594Z,3857
2019-01-23T08:13:53.819Z,3890
2019-01-23T08:14:23.776Z,3933
2019-01-23T08:14:54.100Z,3990
2019-01-23T08:15:24.033Z,4057
2019-01-23T08:15:54.157Z,4107
2019-01-23T08:16:24.135Z,4137
2019-01-23T08:16:54.330Z,4147
2019-01-23T08:17:54.499Z,4167
2019-01-23T08:18:24.528Z,4197
2019-01-23T08:18:54.678Z,4227
2019-01-23T08:19:24.723Z,4240
2019-01-23T08:19:54.837Z,4257
2019-01-23T08:20:24.921Z,4270
2019-01-23T08:20:55.086Z,4300
2019-01-23T08:21:25.078Z,4337
2019-01-23T08:21:55.246Z,4347
2019-01-23T08:22:25.277Z,4343
2019-01-23T08:22:55.426Z,4350
2019-01-23T08:23:55.596Z,4333
2019-01-23T08:24:25.594Z,4317
2019-01-23T08:24:55.732Z,4310
2019-01-23T08:25:25.835Z,4317
2019-01-23T08:25:55.916Z,4353
2019-01-23T08:26:25.943Z,4410
2019-01-23T08:26:56.093Z,4460
2019-01-23T08:27:26.152Z,4483
2019-01-23T08:27:56.333Z,4507
2019-01-23T08:28:26.339Z,4527
2019-01-23T08:28:56.546Z,4543
2019-01-23T08:29:26.572Z,4570
2019-01-23T08:29:56.675Z,4600
2019-01-23T08:30:26.683Z,4603
2019-01-23T08:30:56.851Z,4627
2019-01-23T08:31:26.886Z,4680
2019-01-23T08:31:57.041Z,4720
2019-01-23T08:32:27.052Z,4750
2019-01-23T08:32:57.186Z,4777
2019-01-23T08:33:27.231Z,4807
2019-01-23T08:33:57.338Z,4847
2019-01-23T08:34:57.578Z,4850
2019-01-23T08:35:27.569Z,4900
2019-01-23T08:35:57.769Z,4977
2019-01-23T08:36:27.811Z,5070
2019-01-23T08:36:57.895Z,5163
2019-01-23T08:37:27.949Z,5243
2019-01-23T08:37:58.086Z,5327
2019-01-23T08:38:28.123Z,5437
2019-01-23T08:38:58.312Z,5573
2019-01-23T08:39:28.281Z,5683
2019-01-23T08:39:58.447Z,5760
2019-01-23T08:40:28.507Z,5857
2019-01-23T08:40:58.663Z,5970
2019-01-23T08:41:28.628Z,6100
2019-01-23T08:41:58.760Z,6247
2019-01-23T08:42:28.846Z,6367
2019-01-23T08:42:58.942Z,6460
2019-01-23T08:43:28.979Z,6607
2019-01-23T08:43:59.114Z,6743
2019-01-23T08:44:29.151Z,6833
2019-01-23T08:44:59.350Z,6910
2019-01-23T08:45:29.408Z,6990
2019-01-23T08:45:59.518Z,7040
2019-01-23T08:46:29.564Z,7110
2019-01-23T08:46:59.697Z,7197
2019-01-23T08:47:29.727Z,7287
2019-01-23T08:47:59.854Z,7383
2019-01-23T08:48:29.909Z,7473
2019-01-23T08:49:00.052Z,7497
2019-01-23T08:49:30.095Z,7467
2019-01-23T08:50:00.289Z,7437
2019-01-23T08:50:30.294Z,7440
2019-01-23T08:51:00.712Z,7460
2019-01-23T08:52:01.089Z,7447
2019-01-23T08:52:30.581Z,7480
2019-01-23T08:53:01.349Z,7577
2019-01-23T08:53:30.761Z,7660
2019-01-23T08:54:01.045Z,7700
2019-01-23T08:54:30.981Z,7757
2019-01-23T08:55:01.179Z,7810
2019-01-23T08:55:31.185Z,7827
2019-01-23T08:56:01.266Z,7797
2019-01-23T08:56:31.346Z,7773
2019-01-23T08:57:01.470Z,7810
2019-01-23T08:57:31.504Z,7907
2019-01-23T08:58:01.721Z,8013
2019-01-23T08:58:31.662Z,8163
2019-01-23T08:59:01.826Z,8337
2019-01-23T08:59:31.836Z,8457
2019-01-23T09:00:02.179Z,8537
2019-01-23T09:00:32.131Z,8637
2019-01-23T09:01:02.173Z,8790
2019-01-23T09:01:32.188Z,8960
2019-01-23T09:02:02.428Z,9103
2019-01-23T09:02:32.432Z,9193
2019-01-23T09:03:02.559Z,9287
2019-01-23T09:03:32.589Z,9370
2019-01-23T09:04:02.781Z,9407
2019-01-23T09:04:32.775Z,9440
2019-01-23T09:05:02.990Z,9513
2019-01-23T09:05:33.008Z,9683
2019-01-23T09:06:03.166Z,9877
2019-01-23T09:06:33.204Z,10037
2019-01-23T09:07:03.338Z,10207
2019-01-23T09:07:33.395Z,10403
2019-01-23T09:08:03.534Z,10580
2019-01-23T09:08:37.553Z,10727
2019-01-23T09:09:03.673Z,10857
2019-01-23T09:09:33.717Z,10923
2019-01-23T09:10:03.841Z,11020
2019-01-23T09:10:33.935Z,11117
2019-01-23T09:11:04.032Z,11213
2019-01-23T09:11:34.155Z,11337
2019-01-23T09:12:04.197Z,11497
2019-01-23T09:12:34.241Z,11570
2019-01-23T09:13:04.373Z,11550
2019-01-23T09:13:34.440Z,11543
2019-01-23T09:14:04.546Z,11603
2019-01-23T09:14:34.573Z,11723
2019-01-23T09:15:04.722Z,11927
2019-01-23T09:15:34.764Z,12113
2019-01-23T09:16:04.878Z,12147
2019-01-23T09:16:34.945Z,12267
2019-01-23T09:17:05.052Z,12377
2019-01-23T09:17:35.094Z,12460
2019-01-23T09:18:05.261Z,12760
2019-01-23T09:18:35.308Z,13167
2019-01-23T09:19:05.440Z,13403
2019-01-23T09:19:35.483Z,13553
2019-01-23T09:20:05.602Z,13680
2019-01-23T09:20:35.699Z,13743
2019-01-23T09:21:05.829Z,13777
2019-01-23T09:21:35.853Z,13837
2019-01-23T09:22:06.003Z,13973
2019-01-23T09:22:36.026Z,14173
2019-01-23T09:23:06.173Z,14413
2019-01-23T09:23:36.149Z,14677
2019-01-23T09:24:06.335Z,14957
2019-01-23T09:24:36.321Z,15203
2019-01-23T09:25:06.514Z,15433
2019-01-23T09:25:36.552Z,15600
2019-01-23T09:26:06.690Z,15723
2019-01-23T09:26:36.748Z,15803
2019-01-23T09:27:06.858Z,15860
2019-01-23T09:27:36.921Z,15907
2019-01-23T09:28:07.038Z,15893
2019-01-23T09:28:37.102Z,15820
2019-01-23T09:29:07.434Z,15710
2019-01-23T09:29:37.209Z,15560
2019-01-23T09:30:07.463Z,15390
2019-01-23T09:30:37.483Z,15217
2019-01-23T09:31:07.833Z,15030
2019-01-23T09:31:37.591Z,14857
2019-01-23T09:32:07.727Z,14693
2019-01-23T09:32:37.747Z,14553
2019-01-23T09:33:08.108Z,14417
2019-01-23T09:33:37.914Z,14283
2019-01-23T09:34:08.065Z,14183
2019-01-23T09:34:38.115Z,14077
2019-01-23T09:35:08.261Z,13980
2019-01-23T09:35:38.297Z,13880
2019-01-23T09:36:08.471Z,13800
2019-01-23T09:36:38.504Z,13720
2019-01-23T09:37:08.858Z,13667
2019-01-23T09:37:38.681Z,13633
2019-01-23T09:38:08.798Z,13610
2019-01-23T09:38:38.794Z,13590
2019-01-23T09:39:09.004Z,13617
2019-01-23T09:39:39.029Z,13670
2019-01-23T09:40:09.197Z,13720
2019-01-23T09:40:39.179Z,13763
2019-01-23T09:41:09.312Z,13780
2019-01-23T09:41:39.321Z,13807
2019-01-23T09:42:09.516Z,13853
2019-01-23T09:42:39.549Z,13917
2019-01-23T09:43:09.671Z,14023
2019-01-23T09:43:39.727Z,14123
2019-01-23T09:44:09.859Z,14253
2019-01-23T09:44:39.850Z,14383
2019-01-23T09:45:10.073Z,14547
2019-01-23T09:45:40.110Z,14723
2019-01-23T09:46:10.247Z,14973
2019-01-23T09:46:40.306Z,15243
2019-01-23T09:47:10.375Z,15413
2019-01-23T09:47:40.419Z,15517
2019-01-23T09:48:10.770Z,15640
2019-01-23T09:48:40.563Z,15773
2019-01-23T09:48:59.723Z,15867
2019-01-23T09:49:28.861Z,16000
2019-01-23T09:49:59.854Z,16080
2019-01-23T09:50:29.959Z,16107
2019-01-23T09:51:00.996Z,16200
2019-01-23T09:51:31.026Z,16243
2019-01-23T09:52:01.935Z,16297
2019-01-23T09:52:31.915Z,16323
2019-01-23T09:53:32.931Z,16257
2019-01-23T09:54:03.934Z,16177
2019-01-23T09:54:33.052Z,16133
2019-01-23T09:55:04.266Z,16110
2019-01-23T09:55:34.100Z,16130
2019-01-23T09:56:05.284Z,16160
2019-01-23T09:56:35.076Z,16163
2019-01-23T09:57:06.086Z,16190
2019-01-23T09:57:36.086Z,16283
2019-01-23T09:58:06.137Z,16437
2019-01-23T09:58:36.124Z,16573
2019-01-23T09:59:06.192Z,16723
2019-01-23T09:59:36.205Z,16837
2019-01-23T10:00:07.187Z,16987
2019-01-23T10:00:37.239Z,17107
2019-01-23T10:01:08.218Z,17337
2019-01-23T10:01:38.221Z,17550
2019-01-23T10:02:08.238Z,17643
2019-01-23T10:02:38.297Z,17760
2019-01-23T10:03:09.332Z,17813
2019-01-23T10:03:39.349Z,17883
2019-01-23T10:04:10.392Z,17903
2019-01-23T10:04:40.348Z,17957
2019-01-23T10:05:11.352Z,18100
2019-01-23T10:05:41.373Z,18357
2019-01-23T10:06:12.387Z,18657
2019-01-23T10:06:42.451Z,18933
2019-01-23T10:07:13.439Z,19177
2019-01-23T10:07:43.463Z,19457
2019-01-23T10:08:14.455Z,19977
2019-01-23T10:08:44.469Z,20410
2019-01-23T10:09:15.475Z,20990
2019-01-23T10:09:45.526Z,21127
2019-01-23T10:10:16.531Z,21067
2019-01-23T10:10:46.551Z,21057
2019-01-23T10:11:17.574Z,20933
2019-01-23T10:11:47.560Z,20797
2019-01-23T10:12:18.575Z,20747
2019-01-23T10:12:48.560Z,20857
2019-01-23T10:13:19.611Z,20943
2019-01-23T10:13:49.602Z,21170
2019-01-23T10:14:20.647Z,21517
2019-01-23T10:14:50.652Z,21643
2019-01-23T10:15:21.664Z,22240
2019-01-23T10:15:51.696Z,22347
2019-01-23T10:16:21.727Z,22197
2019-01-23T10:16:51.769Z,22210
2019-01-23T10:17:21.772Z,22457
2019-01-23T10:17:51.757Z,22487
2019-01-23T10:18:22.744Z,22230
2019-01-23T10:18:56.071Z,22007
2019-01-23T10:19:23.796Z,21967
2019-01-23T10:19:53.845Z,21673
2019-01-23T10:20:23.855Z,21867
2019-01-23T10:20:53.847Z,22217
2019-01-23T10:21:24.892Z,22210
2019-01-23T10:21:54.885Z,21870
2019-01-23T10:22:25.862Z,21363
2019-01-23T10:22:55.880Z,21270
2019-01-23T10:23:26.966Z,20907
2019-01-23T10:23:56.932Z,20230
2019-01-23T10:24:27.907Z,19423
2019-01-23T10:24:57.990Z,18527
2019-01-23T10:25:28.974Z,17787
2019-01-23T10:25:58.962Z,17590
2019-01-23T10:26:30.041Z,17217
2019-01-23T10:27:00.014Z,16927
2019-01-23T10:27:31.023Z,16950
2019-01-23T10:28:03.968Z,17163
2019-01-23T10:28:33.106Z,17597
2019-01-23T10:29:04.120Z,18017
2019-01-23T10:29:34.226Z,18253
2019-01-23T10:30:05.167Z,19273
2019-01-23T10:30:35.182Z,19797
2019-01-23T10:31:06.648Z,19910
2019-01-23T10:31:36.166Z,19780
2019-01-23T10:32:07.153Z,19713
2019-01-23T10:32:37.128Z,19657
2019-01-23T10:33:08.179Z,19743
2019-01-23T10:33:38.160Z,19853
2019-01-23T10:34:09.170Z,19993
2019-01-23T10:34:39.135Z,20100
2019-01-23T10:35:10.374Z,20177
2019-01-23T10:35:40.165Z,20650
2019-01-23T10:36:11.161Z,21343
2019-01-23T10:36:41.144Z,21767
2019-01-23T10:37:12.129Z,22057
2019-01-23T10:37:42.104Z,22127
2019-01-23T10:38:13.094Z,22187
2019-01-23T10:38:43.080Z,22600
2019-01-23T10:39:14.075Z,22750
2019-01-23T10:39:44.147Z,22513
2019-01-23T10:40:15.095Z,22367
2019-01-23T10:40:45.114Z,22260
2019-01-23T10:41:16.081Z,22077
2019-01-23T10:41:46.094Z,21873
2019-01-23T10:42:17.105Z,21943
2019-01-23T10:42:47.031Z,21727
2019-01-23T10:43:18.068Z,21503
2019-01-23T10:43:48.112Z,21593
2019-01-23T10:44:19.051Z,21330
2019-01-23T10:44:49.100Z,20993
2019-01-23T10:45:20.017Z,20903
2019-01-23T10:45:50.035Z,21090
2019-01-23T10:46:21.040Z,21107
2019-01-23T10:46:51.030Z,21233
2019-01-23T10:47:22.026Z,21130
2019-01-23T10:47:55.987Z,20713
2019-01-23T10:48:23.016Z,20653
2019-01-23T10:48:53.057Z,20183
2019-01-23T10:49:24.006Z,19857
2019-01-23T10:49:53.981Z,19690
2019-01-23T10:50:25.004Z,19600
2019-01-23T10:50:54.988Z,19490
2019-01-23T10:51:25.996Z,19430
2019-01-23T10:51:55.935Z,19387
2019-01-23T10:52:26.965Z,19210
2019-01-23T10:52:57.036Z,18877
2019-01-23T10:53:27.987Z,18267
2019-01-23T10:53:57.965Z,17717
2019-01-23T10:54:28.933Z,17333
2019-01-23T10:54:58.901Z,17153
2019-01-23T10:55:29.971Z,17073
2019-01-23T10:56:00.154Z,16983
2019-01-23T10:56:30.923Z,16933
2019-01-23T10:57:00.977Z,16733
2019-01-23T10:57:31.893Z,16157
2019-01-23T10:58:02.095Z,15750
2019-01-23T10:58:32.902Z,15580
2019-01-23T10:59:02.940Z,15540
2019-01-23T10:59:33.901Z,15500
2019-01-23T11:00:03.941Z,15177
2019-01-23T11:00:34.863Z,14847
2019-01-23T11:01:04.876Z,14990
2019-01-23T11:01:35.874Z,15043
2019-01-23T11:02:04.932Z,14607
2019-01-23T11:02:36.035Z,14473
2019-01-23T11:03:09.932Z,14227
2019-01-23T11:03:37.021Z,13807
2019-01-23T11:04:07.088Z,13810
2019-01-23T11:04:38.007Z,14000
2019-01-23T11:05:08.025Z,14577
2019-01-23T11:05:39.080Z,15617
2019-01-23T11:06:09.112Z,16207
2019-01-23T11:06:40.105Z,15870
2019-01-23T11:07:10.175Z,16213
2019-01-23T11:07:41.158Z,17070
2019-01-23T11:08:11.151Z,18107
2019-01-23T11:08:41.154Z,19243
2019-01-23T11:09:11.356Z,19353
2019-01-23T11:09:42.194Z,19397
2019-01-23T11:10:12.217Z,19750
2019-01-23T11:10:43.195Z,20437
2019-01-23T11:11:13.300Z,20217
2019-01-23T11:11:43.297Z,19507
2019-01-23T11:12:13.308Z,18133
2019-01-23T11:12:43.294Z,16813
2019-01-23T11:13:13.305Z,16300
2019-01-23T11:13:44.308Z,16957
2019-01-23T11:14:14.342Z,17980
2019-01-23T11:14:45.367Z,18657
2019-01-23T11:15:15.424Z,18713
2019-01-23T11:15:46.405Z,18983
2019-01-23T11:16:16.410Z,19900
2019-01-23T11:16:47.463Z,19697
2019-01-23T11:17:17.437Z,19193
2019-01-23T11:17:47.418Z,19400
2019-01-23T11:18:17.520Z,19737
2019-01-23T11:18:48.461Z,20107
2019-01-23T11:19:18.466Z,19720
2019-01-23T11:19:49.479Z,19460
2019-01-23T11:20:19.668Z,19560
2019-01-23T11:20:50.537Z,19573
2019-01-23T11:21:20.521Z,19707
2019-01-23T11:21:50.565Z,18673
2019-01-23T11:22:20.591Z,18117
2019-01-23T11:22:51.634Z,18430
2019-01-23T11:23:21.632Z,19387
2019-01-23T11:23:51.686Z,19393
2019-01-23T11:24:21.647Z,19327
2019-01-23T11:24:52.674Z,18867
2019-01-23T11:25:22.688Z,18477
2019-01-23T11:25:53.674Z,18017
2019-01-23T11:26:23.712Z,17417
2019-01-23T11:26:53.776Z,16843
2019-01-23T11:27:23.755Z,16867
2019-01-23T11:27:53.823Z,17060
2019-01-23T11:28:23.805Z,17993
2019-01-23T11:28:53.876Z,18440
2019-01-23T11:29:23.852Z,18040
2019-01-23T11:29:53.900Z,17753
2019-01-23T11:30:23.907Z,18000
2019-01-23T11:30:53.934Z,17670
2019-01-23T11:31:23.957Z,16733
2019-01-23T11:31:53.962Z,17233
2019-01-23T11:32:23.999Z,18020
2019-01-23T11:32:54.993Z,18537
2019-01-23T11:33:24.998Z,19530
2019-01-23T11:33:56.022Z,19133
2019-01-23T11:34:25.999Z,18737
2019-01-23T11:34:57.004Z,19453
2019-01-23T11:35:27.124Z,20430
2019-01-23T11:35:58.050Z,22240
2019-01-23T11:36:28.076Z,23500
2019-01-23T11:36:59.152Z,24750
2019-01-23T11:37:29.094Z,25120
2019-01-23T11:38:00.166Z,25173
2019-01-23T11:38:30.110Z,25267
2019-01-23T11:39:01.169Z,25120
2019-01-23T11:39:31.178Z,24473
2019-01-23T11:40:01.330Z,24160
2019-01-23T11:40:31.224Z,24723
2019-01-23T11:41:02.190Z,24960
2019-01-23T11:41:32.244Z,23810
2019-01-23T11:42:03.250Z,23633
2019-01-23T11:42:36.197Z,23827
2019-01-23T11:43:05.355Z,24097
2019-01-23T11:43:36.322Z,23777
2019-01-23T11:44:06.446Z,22697
2019-01-23T11:44:37.434Z,21010
2019-01-23T11:45:07.417Z,19543
2019-01-23T11:45:38.417Z,18577
2019-01-23T11:46:08.423Z,18097
2019-01-23T11:46:39.407Z,17937
2019-01-23T11:47:09.396Z,18127
2019-01-23T11:47:40.377Z,18440
2019-01-23T11:48:10.400Z,18157
2019-01-23T11:48:41.385Z,17793
2019-01-23T11:49:11.431Z,17837
2019-01-23T11:49:42.398Z,18873
2019-01-23T11:50:12.341Z,19187
2019-01-23T11:50:43.345Z,20030
2019-01-23T11:51:13.350Z,20733
2019-01-23T11:51:44.363Z,20703
2019-01-23T11:52:14.310Z,20400
2019-01-23T11:52:45.351Z,20680
2019-01-23T11:53:15.373Z,20553
2019-01-23T11:53:46.311Z,19240
2019-01-23T11:54:16.360Z,18793
2019-01-23T11:54:47.324Z,19083
2019-01-23T11:55:17.313Z,19417
2019-01-23T11:55:48.319Z,18950
2019-01-23T11:56:18.334Z,19340
2019-01-23T11:56:49.318Z,19163
2019-01-23T11:57:19.325Z,20227
2019-01-23T11:57:50.328Z,20937
2019-01-23T11:58:20.292Z,20327
2019-01-23T11:58:51.316Z,19813
2019-01-23T11:59:21.281Z,19843
2019-01-23T11:59:52.274Z,20447
2019-01-23T12:00:22.250Z,21070
2019-01-23T12:00:53.245Z,21223
2019-01-23T12:01:27.468Z,21093
2019-01-23T12:01:54.320Z,21137
2019-01-23T12:02:30.545Z,21343
2019-01-23T12:02:55.254Z,21453
2019-01-23T12:03:25.240Z,21153
2019-01-23T12:03:56.230Z,21087
2019-01-23T12:04:26.241Z,20793
2019-01-23T12:04:57.268Z,20257
2019-01-23T12:05:26.350Z,19653
2019-01-23T12:05:57.399Z,19427
2019-01-23T12:06:27.367Z,18920
2019-01-23T12:06:58.430Z,18553
2019-01-23T12:07:28.397Z,18447
2019-01-23T12:07:59.410Z,18290
2019-01-23T12:08:29.430Z,17860
2019-01-23T12:09:01.442Z,17587
2019-01-23T12:09:30.506Z,17337
2019-01-23T12:10:01.451Z,17153
2019-01-23T12:10:31.489Z,16813
2019-01-23T12:11:01.529Z,16603
2019-01-23T12:11:31.517Z,16920
2019-01-23T12:12:02.728Z,16867
2019-01-23T12:12:32.571Z,16617
2019-01-23T12:13:03.563Z,16423
2019-01-23T12:13:33.636Z,16447
2019-01-23T12:14:04.581Z,16683
2019-01-23T12:14:34.578Z,16773
2019-01-23T12:15:04.667Z,17067
2019-01-23T12:15:40.511Z,16747
2019-01-23T12:16:05.672Z,16997
2019-01-23T12:16:35.640Z,17117
2019-01-23T12:17:05.721Z,17047
2019-01-23T12:17:35.722Z,16977
2019-01-23T12:18:05.767Z,16970
2019-01-23T12:18:35.770Z,16907
2019-01-23T12:19:05.773Z,16640
2019-01-23T12:19:35.785Z,16560
2019-01-23T12:20:05.826Z,16703
2019-01-23T12:20:35.835Z,16583
2019-01-23T12:21:05.872Z,16243
2019-01-23T12:21:35.883Z,16263
2019-01-23T12:22:05.961Z,16197
2019-01-23T12:22:35.956Z,16500
2019-01-23T12:23:05.940Z,16540
2019-01-23T12:23:36.026Z,16510
2019-01-23T12:24:06.004Z,16647
2019-01-23T12:24:36.082Z,16597
2019-01-23T12:25:06.064Z,16530
2019-01-23T12:25:36.051Z,16413
2019-01-23T12:26:07.088Z,16317
2019-01-23T12:26:37.099Z,16133
2019-01-23T12:27:07.108Z,15980
2019-01-23T12:27:37.155Z,15897
2019-01-23T12:28:07.214Z,15810
2019-01-23T12:28:37.248Z,15530
2019-01-23T12:29:08.212Z,15327
2019-01-23T12:29:38.245Z,15217
2019-01-23T12:30:08.309Z,15237
2019-01-23T12:30:38.222Z,14903
2019-01-23T12:31:08.283Z,14823
2019-01-23T12:31:38.306Z,14813
2019-01-23T12:32:08.323Z,14660
2019-01-23T12:32:38.319Z,14510
2019-01-23T12:33:09.357Z,14473
2019-01-23T12:33:39.376Z,14403
2019-01-23T12:34:09.408Z,14400
2019-01-23T12:34:39.423Z,14250
2019-01-23T12:35:09.466Z,14277
2019-01-23T12:35:39.452Z,14030
2019-01-23T12:36:09.479Z,13853
2019-01-23T12:36:39.496Z,13867
2019-01-23T12:37:09.504Z,13817
2019-01-23T12:37:39.576Z,13773
2019-01-23T12:38:09.566Z,13900
2019-01-23T12:38:39.573Z,13980
2019-01-23T12:39:09.630Z,14000
2019-01-23T12:39:39.643Z,14023
2019-01-23T12:40:09.625Z,14143
2019-01-23T12:40:39.633Z,14170
2019-01-23T12:41:09.647Z,14120
2019-01-23T12:41:39.769Z,14133
2019-01-23T12:42:10.705Z,14127
2019-01-23T12:42:40.744Z,14133
2019-01-23T12:43:10.736Z,14120
2019-01-23T12:43:40.791Z,14140
2019-01-23T12:44:10.769Z,14137
2019-01-23T12:44:40.786Z,14113
2019-01-23T12:45:11.834Z,14080
2019-01-23T12:45:41.838Z,14050
2019-01-23T12:46:11.825Z,14013
2019-01-23T12:46:41.888Z,14000
2019-01-23T12:47:11.899Z,13940
2019-01-23T12:47:41.961Z,13880
2019-01-23T12:48:12.006Z,13833
2019-01-23T12:48:42.015Z,13830
2019-01-23T12:49:12.091Z,13850
2019-01-23T12:49:42.104Z,13883
2019-01-23T12:50:12.132Z,13940
2019-01-23T12:50:42.162Z,14030
2019-01-23T12:51:12.210Z,14140
2019-01-23T12:51:42.159Z,14247
2019-01-23T12:52:13.200Z,14287
2019-01-23T12:52:43.223Z,14303
2019-01-23T12:53:13.214Z,14400
2019-01-23T12:53:43.306Z,14490
2019-01-23T12:54:13.260Z,14590
2019-01-23T12:54:43.307Z,14720
2019-01-23T12:55:13.343Z,14897
2019-01-23T12:55:43.317Z,14977
2019-01-23T12:56:13.353Z,15010
2019-01-23T12:56:43.368Z,14933
2019-01-23T12:57:13.379Z,14777
2019-01-23T12:57:43.364Z,14683
2019-01-23T12:58:43.449Z,14680
2019-01-23T12:59:13.466Z,14620
2019-01-23T12:59:43.476Z,14510
2019-01-23T13:00:14.517Z,14390
2019-01-23T13:00:44.488Z,14293
2019-01-23T13:01:15.659Z,14217
2019-01-23T13:01:44.538Z,14170
2019-01-23T13:02:14.572Z,14123
2019-01-23T13:02:44.532Z,14090
2019-01-23T13:03:14.603Z,14063
2019-01-23T13:03:44.632Z,14033
2019-01-23T13:04:14.643Z,14017
2019-01-23T13:04:45.030Z,13993
2019-01-23T13:05:14.683Z,13983
2019-01-23T13:05:44.641Z,13967
2019-01-23T13:06:45.759Z,14000
2019-01-23T13:07:16.690Z,14043
2019-01-23T13:07:46.717Z,14097
2019-01-23T13:08:17.737Z,14157
2019-01-23T13:08:47.751Z,14223
2019-01-23T13:09:17.841Z,14287
2019-01-23T13:09:47.862Z,14363
2019-01-23T13:10:17.857Z,14427
2019-01-23T13:10:47.869Z,14503
2019-01-23T13:11:18.822Z,14587
2019-01-23T13:11:48.897Z,14667
2019-01-23T13:12:19.850Z,14707
2019-01-23T13:12:49.870Z,14733
2019-01-23T13:13:19.880Z,14773
2019-01-23T13:13:49.908Z,14803
2019-01-23T13:14:21.035Z,14817
2019-01-23T13:14:50.956Z,14813
2019-01-23T13:15:21.986Z,14803
2019-01-23T13:15:52.019Z,14787
2019-01-23T13:16:22.977Z,14750
2019-01-23T13:16:52.975Z,14730
2019-01-23T13:17:24.027Z,14700
2019-01-23T13:17:54.052Z,14677
2019-01-23T13:18:25.022Z,14640
2019-01-23T13:18:55.124Z,14587
2019-01-23T13:19:26.141Z,14527
2019-01-23T13:19:59.175Z,14463
2019-01-23T13:20:28.158Z,14427
2019-01-23T13:20:59.131Z,14403
2019-01-23T13:21:29.286Z,14383
2019-01-23T13:22:00.829Z,14377
2019-01-23T13:22:30.205Z,14383
2019-01-23T13:23:01.277Z,14403
2019-01-23T13:24:02.290Z,14390
2019-01-23T13:24:32.190Z,14387
2019-01-23T13:25:03.195Z,14373
2019-01-23T13:25:33.218Z,14370
2019-01-23T13:26:04.224Z,14357
2019-01-23T13:26:34.226Z,14327
2019-01-23T13:27:05.165Z,14307
2019-01-23T13:27:35.173Z,14323
2019-01-23T13:28:06.257Z,14337
2019-01-23T13:28:36.190Z,14353